createdAt,value
2022-08-03T00:00:55.978Z,17.13
2022-08-03T00:01:55.948Z,17.14
2022-08-03T00:02:56.056Z,17.13
2022-08-03T00:03:55.927Z,17.10
2022-08-03T00:04:55.958Z,17.06
2022-08-03T00:06:04.411Z,17.06
2022-08-03T00:06:56.889Z,17.06
2022-08-03T00:07:55.877Z,17.03
2022-08-03T00:08:55.874Z,16.99
2022-08-03T00:09:55.857Z,16.99
2022-08-03T00:10:55.859Z,16.98
2022-08-03T00:11:55.840Z,16.98
2022-08-03T00:12:55.838Z,16.98
2022-08-03T00:13:55.815Z,16.96
2022-08-03T00:14:55.816Z,16.93
2022-08-03T00:15:55.787Z,16.95
2022-08-03T00:16:55.777Z,16.92
2022-08-03T00:17:55.766Z,16.92
2022-08-03T00:18:55.758Z,16.93
2022-08-03T00:19:55.745Z,16.88
2022-08-03T00:20:55.747Z,16.86
2022-08-03T00:21:55.716Z,16.86
2022-08-03T00:22:55.713Z,16.86
2022-08-03T00:23:55.706Z,16.86
2022-08-03T00:24:55.697Z,16.86
2022-08-03T00:25:55.719Z,16.86
2022-08-03T00:26:55.676Z,16.86
2022-08-03T00:27:55.690Z,16.85
2022-08-03T00:28:55.666Z,16.83
2022-08-03T00:29:59.958Z,16.83
2022-08-03T00:30:55.629Z,16.83
2022-08-03T00:31:59.530Z,16.81
2022-08-03T00:32:55.607Z,16.78
2022-08-03T00:33:59.972Z,16.80
2022-08-03T00:34:58.485Z,16.77
2022-08-03T00:35:55.575Z,16.77
2022-08-03T00:36:55.564Z,16.75
2022-08-03T00:37:55.545Z,16.74
2022-08-03T00:38:55.534Z,16.73
2022-08-03T00:39:55.522Z,16.71
2022-08-03T00:40:55.524Z,16.68
2022-08-03T00:41:55.529Z,16.68
2022-08-03T00:42:55.490Z,16.67
2022-08-03T00:43:55.474Z,16.68
2022-08-03T00:44:55.454Z,16.68
2022-08-03T00:45:55.446Z,16.70
2022-08-03T00:46:55.455Z,16.71
2022-08-03T00:47:55.433Z,16.68
2022-08-03T00:48:55.520Z,16.68
2022-08-03T00:49:55.404Z,16.68
2022-08-03T00:50:55.394Z,16.70
2022-08-03T00:51:55.393Z,16.70
2022-08-03T00:52:55.382Z,16.67
2022-08-03T00:53:55.363Z,16.68
2022-08-03T00:54:55.343Z,16.67
2022-08-03T00:55:55.362Z,16.68
2022-08-03T00:56:59.556Z,16.67
2022-08-03T00:57:56.322Z,16.67
2022-08-03T00:58:55.301Z,16.63
2022-08-03T00:59:55.304Z,16.62
2022-08-03T01:00:55.302Z,16.62
2022-08-03T01:01:55.270Z,16.60
2022-08-03T01:02:55.272Z,16.59
2022-08-03T01:03:55.242Z,16.58
2022-08-03T01:04:55.232Z,16.58
2022-08-03T01:05:55.242Z,16.56
2022-08-03T01:06:55.212Z,16.58
2022-08-03T01:07:55.208Z,16.56
2022-08-03T01:08:55.191Z,16.56
2022-08-03T01:09:55.182Z,16.55
2022-08-03T01:10:55.192Z,16.55
2022-08-03T01:12:00.589Z,16.53
2022-08-03T01:12:56.139Z,16.55
2022-08-03T01:14:04.123Z,16.52
2022-08-03T01:14:56.115Z,16.52
2022-08-03T01:15:55.129Z,16.50
2022-08-03T01:16:55.090Z,16.48
2022-08-03T01:17:55.093Z,16.48
2022-08-03T01:18:55.072Z,16.45
2022-08-03T01:19:55.060Z,16.44
2022-08-03T01:20:55.052Z,16.44
2022-08-03T01:21:55.050Z,16.45
2022-08-03T01:22:55.768Z,16.42
2022-08-03T01:23:55.019Z,16.42
2022-08-03T01:24:55.009Z,16.42
2022-08-03T01:25:54.999Z,16.42
2022-08-03T01:26:54.981Z,16.41
2022-08-03T01:27:54.991Z,16.41
2022-08-03T01:28:54.961Z,16.41
2022-08-03T01:29:54.949Z,16.40
2022-08-03T01:30:54.937Z,16.40
2022-08-03T01:33:00.296Z,16.40
2022-08-03T01:33:00.813Z,16.38
2022-08-03T01:33:55.918Z,16.38
2022-08-03T01:34:54.890Z,16.35
2022-08-03T01:35:54.878Z,16.35
2022-08-03T01:36:54.869Z,16.34
2022-08-03T01:37:54.848Z,16.31
2022-08-03T01:38:54.847Z,16.31
2022-08-03T01:39:54.839Z,16.30
2022-08-03T01:40:54.834Z,16.27
2022-08-03T01:41:54.835Z,16.30
2022-08-03T01:42:54.798Z,16.27
2022-08-03T01:44:27.817Z,16.27
2022-08-03T01:44:55.786Z,16.27
2022-08-03T01:45:54.766Z,16.26
2022-08-03T01:46:54.749Z,16.27
2022-08-03T01:47:54.738Z,16.27
2022-08-03T01:48:54.790Z,16.26
2022-08-03T01:49:54.734Z,16.25
2022-08-03T01:50:54.707Z,16.23
2022-08-03T01:51:56.676Z,16.25
2022-08-03T01:52:55.685Z,16.22
2022-08-03T01:53:54.668Z,16.20
2022-08-03T01:54:54.685Z,16.20
2022-08-03T01:55:54.646Z,16.20
2022-08-03T01:56:54.639Z,16.20
2022-08-03T01:58:05.741Z,16.18
2022-08-03T01:58:55.617Z,16.16
2022-08-03T01:59:54.599Z,16.16
2022-08-03T02:00:54.656Z,16.16
2022-08-03T02:02:31.836Z,16.14
2022-08-03T02:02:55.573Z,16.12
2022-08-03T02:04:00.226Z,16.15
2022-08-03T02:04:55.545Z,16.15
2022-08-03T02:06:11.718Z,16.14
2022-08-03T02:06:59.942Z,16.14
2022-08-03T02:07:55.505Z,16.12
2022-08-03T02:08:54.505Z,16.11
2022-08-03T02:09:54.505Z,16.11
2022-08-03T02:10:54.489Z,16.07
2022-08-03T02:11:54.466Z,16.09
2022-08-03T02:12:54.453Z,16.09
2022-08-03T02:13:54.435Z,16.06
2022-08-03T02:14:54.433Z,16.07
2022-08-03T02:15:54.424Z,16.06
2022-08-03T02:16:54.413Z,16.06
2022-08-03T02:17:54.395Z,16.07
2022-08-03T02:18:54.385Z,16.07
2022-08-03T02:19:54.375Z,16.03
2022-08-03T02:20:54.373Z,16.03
2022-08-03T02:21:56.982Z,16.03
2022-08-03T02:22:55.343Z,16.04
2022-08-03T02:23:54.330Z,16.00
2022-08-03T02:24:54.313Z,16.01
2022-08-03T02:25:54.313Z,16.01
2022-08-03T02:26:54.294Z,16.01
2022-08-03T02:27:54.283Z,15.99
2022-08-03T02:28:54.272Z,16.00
2022-08-03T02:29:54.261Z,15.99
2022-08-03T02:30:54.262Z,15.96
2022-08-03T02:31:54.250Z,15.94
2022-08-03T02:32:54.225Z,15.92
2022-08-03T02:33:54.212Z,15.92
2022-08-03T02:34:54.202Z,15.89
2022-08-03T02:35:54.194Z,15.92
2022-08-03T02:36:54.192Z,15.89
2022-08-03T02:37:54.169Z,15.88
2022-08-03T02:38:54.197Z,15.88
2022-08-03T02:39:54.141Z,15.86
2022-08-03T02:40:54.132Z,15.88
2022-08-03T02:41:54.131Z,15.85
2022-08-03T02:42:54.110Z,15.84
2022-08-03T02:44:06.535Z,15.82
2022-08-03T02:44:55.090Z,15.82
2022-08-03T02:45:54.073Z,15.82
2022-08-03T02:46:54.201Z,15.81
2022-08-03T02:47:54.954Z,15.79
2022-08-03T02:48:54.063Z,15.79
2022-08-03T02:49:54.049Z,15.78
2022-08-03T02:50:54.029Z,15.76
2022-08-03T02:51:54.017Z,15.75
2022-08-03T02:52:54.002Z,15.74
2022-08-03T02:53:53.988Z,15.72
2022-08-03T02:54:53.969Z,15.68
2022-08-03T02:55:53.960Z,15.68
2022-08-03T02:56:53.977Z,15.68
2022-08-03T02:57:53.938Z,15.67
2022-08-03T02:58:53.930Z,15.67
2022-08-03T02:59:53.908Z,15.67
2022-08-03T03:00:53.989Z,15.66
2022-08-03T03:01:53.888Z,15.66
2022-08-03T03:02:53.890Z,15.64
2022-08-03T03:03:53.867Z,15.60
2022-08-03T03:05:50.938Z,15.61
2022-08-03T03:05:57.808Z,15.61
2022-08-03T03:06:53.837Z,15.59
2022-08-03T03:07:53.828Z,15.59
2022-08-03T03:08:59.309Z,15.57
2022-08-03T03:09:54.799Z,15.59
2022-08-03T03:10:55.626Z,15.57
2022-08-03T03:11:53.781Z,15.59
2022-08-03T03:12:53.777Z,15.57
2022-08-03T03:13:53.757Z,15.57
2022-08-03T03:14:53.748Z,15.52
2022-08-03T03:15:53.726Z,15.49
2022-08-03T03:16:57.991Z,15.48
2022-08-03T03:17:53.725Z,15.45
2022-08-03T03:18:53.696Z,15.45
2022-08-03T03:19:53.692Z,15.43
2022-08-03T03:20:53.675Z,15.45
2022-08-03T03:21:53.669Z,15.41
2022-08-03T03:22:53.665Z,15.42
2022-08-03T03:23:53.636Z,15.42
2022-08-03T03:24:53.635Z,15.42
2022-08-03T03:25:53.616Z,15.39
2022-08-03T03:26:53.606Z,15.36
2022-08-03T03:27:53.593Z,15.30
2022-08-03T03:28:53.585Z,15.27
2022-08-03T03:29:53.585Z,15.26
2022-08-03T03:30:53.685Z,15.23
2022-08-03T03:31:53.545Z,15.23
2022-08-03T03:32:53.534Z,15.23
2022-08-03T03:33:53.525Z,15.20
2022-08-03T03:34:53.514Z,15.23
2022-08-03T03:35:53.508Z,15.21
2022-08-03T03:36:53.494Z,15.20
2022-08-03T03:37:53.487Z,15.21
2022-08-03T03:38:53.740Z,15.23
2022-08-03T03:39:53.454Z,15.23
2022-08-03T03:40:53.454Z,15.23
2022-08-03T03:41:53.423Z,15.23
2022-08-03T03:42:53.423Z,15.23
2022-08-03T03:43:53.404Z,15.24
2022-08-03T03:44:53.401Z,15.23
2022-08-03T03:45:53.400Z,15.23
2022-08-03T03:46:53.372Z,15.24
2022-08-03T03:47:53.363Z,15.21
2022-08-03T03:48:53.410Z,15.19
2022-08-03T03:49:53.342Z,15.15
2022-08-03T03:50:53.341Z,15.15
2022-08-03T03:51:53.312Z,15.13
2022-08-03T03:52:53.312Z,15.11
2022-08-03T03:53:53.295Z,15.11
2022-08-03T03:54:57.493Z,15.11
2022-08-03T03:56:01.601Z,15.11
2022-08-03T03:56:54.263Z,15.11
2022-08-03T03:57:53.249Z,15.13
2022-08-03T03:58:53.240Z,15.12
2022-08-03T03:59:53.231Z,15.11
2022-08-03T04:00:53.265Z,15.11
2022-08-03T04:01:59.289Z,15.11
2022-08-03T04:02:54.231Z,15.11
2022-08-03T04:03:53.179Z,15.11
2022-08-03T04:04:53.170Z,15.11
2022-08-03T04:05:53.152Z,15.15
2022-08-03T04:06:53.160Z,15.17
2022-08-03T04:07:53.133Z,15.17
2022-08-03T04:08:53.119Z,15.19
2022-08-03T04:09:53.110Z,15.17
2022-08-03T04:10:53.099Z,15.19
2022-08-03T04:11:53.102Z,15.20
2022-08-03T04:12:53.078Z,15.19
2022-08-03T04:13:53.060Z,15.17
2022-08-03T04:14:53.059Z,15.19
2022-08-03T04:15:53.041Z,15.21
2022-08-03T04:16:53.037Z,15.21
2022-08-03T04:17:53.040Z,15.21
2022-08-03T04:18:53.027Z,15.21
2022-08-03T04:19:52.989Z,15.24
2022-08-03T04:20:52.988Z,15.24
2022-08-03T04:21:53.002Z,15.24
2022-08-03T04:22:52.961Z,15.26
2022-08-03T04:23:52.947Z,15.24
2022-08-03T04:24:52.947Z,15.24
2022-08-03T04:25:52.931Z,15.27
2022-08-03T04:26:53.050Z,15.23
2022-08-03T04:28:28.327Z,15.26
2022-08-03T04:28:53.898Z,15.24
2022-08-03T04:29:52.882Z,15.23
2022-08-03T04:30:52.868Z,15.26
2022-08-03T04:31:52.857Z,15.26
2022-08-03T04:32:52.847Z,15.26
2022-08-03T04:33:52.849Z,15.26
2022-08-03T04:34:52.827Z,15.28
2022-08-03T04:36:00.892Z,15.28
2022-08-03T04:36:53.797Z,15.30
2022-08-03T04:37:52.789Z,15.33
2022-08-03T04:38:52.797Z,15.28
2022-08-03T04:39:52.765Z,15.33
2022-08-03T04:40:52.756Z,15.36
2022-08-03T04:42:07.165Z,15.36
2022-08-03T04:42:53.736Z,15.36
2022-08-03T04:43:52.717Z,15.39
2022-08-03T04:44:55.536Z,15.39
2022-08-03T04:45:53.696Z,15.42
2022-08-03T04:46:52.857Z,15.41
2022-08-03T04:47:52.673Z,15.42
2022-08-03T04:48:52.719Z,15.43
2022-08-03T04:49:52.653Z,15.45
2022-08-03T04:50:52.655Z,15.43
2022-08-03T04:51:52.627Z,15.45
2022-08-03T04:52:52.623Z,15.46
2022-08-03T04:53:52.604Z,15.48
2022-08-03T04:54:52.614Z,15.49
2022-08-03T04:55:52.587Z,15.54
2022-08-03T04:56:52.574Z,15.52
2022-08-03T04:57:52.563Z,15.56
2022-08-03T04:58:52.554Z,15.61
2022-08-03T04:59:54.635Z,15.61
2022-08-03T05:00:52.538Z,15.63
2022-08-03T05:01:52.601Z,15.68
2022-08-03T05:02:52.504Z,15.72
2022-08-03T05:03:52.514Z,15.75
2022-08-03T05:04:52.506Z,15.76
2022-08-03T05:05:52.485Z,15.79
2022-08-03T05:06:55.114Z,15.84
2022-08-03T05:07:52.448Z,15.85
2022-08-03T05:08:52.474Z,15.88
2022-08-03T05:09:57.640Z,15.92
2022-08-03T05:10:53.423Z,15.93
2022-08-03T05:11:52.394Z,15.97
2022-08-03T05:12:52.393Z,16.01
2022-08-03T05:13:52.387Z,16.06
2022-08-03T05:14:52.362Z,16.07
2022-08-03T05:15:52.373Z,16.11
2022-08-03T05:16:52.345Z,16.15
2022-08-03T05:17:52.332Z,16.20
2022-08-03T05:18:52.322Z,16.22
2022-08-03T05:19:52.310Z,16.26
2022-08-03T05:20:52.336Z,16.31
2022-08-03T05:21:53.079Z,16.34
2022-08-03T05:22:52.302Z,16.37
2022-08-03T05:23:52.265Z,16.41
2022-08-03T05:24:52.252Z,16.44
2022-08-03T05:25:52.252Z,16.50
2022-08-03T05:26:52.242Z,16.53
2022-08-03T05:27:52.220Z,16.58
2022-08-03T05:28:52.209Z,16.62
2022-08-03T05:29:52.192Z,16.65
2022-08-03T05:30:52.190Z,16.68
2022-08-03T05:31:52.181Z,16.71
2022-08-03T05:32:52.161Z,16.75
2022-08-03T05:33:52.151Z,16.80
2022-08-03T05:34:52.139Z,16.85
2022-08-03T05:35:57.751Z,16.88
2022-08-03T05:36:53.131Z,16.92
2022-08-03T05:37:54.504Z,16.96
2022-08-03T05:38:52.093Z,17.00
2022-08-03T05:39:52.081Z,17.04
2022-08-03T05:40:57.253Z,17.08
2022-08-03T05:41:53.072Z,17.11
2022-08-03T05:42:52.058Z,17.15
2022-08-03T05:43:52.034Z,17.18
2022-08-03T05:44:52.027Z,17.22
2022-08-03T05:46:11.663Z,17.26
2022-08-03T05:46:54.100Z,17.29
2022-08-03T05:47:52.001Z,17.33
2022-08-03T05:48:52.201Z,17.38
2022-08-03T05:49:51.968Z,17.43
2022-08-03T05:50:51.961Z,17.46
2022-08-03T05:51:59.964Z,17.51
2022-08-03T05:52:52.970Z,17.55
2022-08-03T05:53:51.952Z,17.59
2022-08-03T05:54:56.736Z,17.67
2022-08-03T05:55:56.942Z,17.73
2022-08-03T05:56:52.889Z,17.78
2022-08-03T05:57:51.880Z,17.85
2022-08-03T05:58:51.888Z,17.91
2022-08-03T05:59:54.823Z,17.97
2022-08-03T06:00:52.839Z,18.03
2022-08-03T06:01:51.861Z,18.12
2022-08-03T06:02:51.827Z,18.15
2022-08-03T06:03:51.799Z,18.24
2022-08-03T06:04:51.811Z,18.28
2022-08-03T06:06:00.039Z,18.39
2022-08-03T06:06:52.769Z,18.46
2022-08-03T06:07:51.759Z,18.58
2022-08-03T06:08:51.750Z,18.65
2022-08-03T06:09:56.725Z,18.72
2022-08-03T06:10:52.727Z,18.80
2022-08-03T06:11:51.718Z,18.84
2022-08-03T06:12:51.712Z,18.94
2022-08-03T06:13:51.709Z,18.99
2022-08-03T06:14:51.678Z,19.06
2022-08-03T06:15:51.669Z,19.11
2022-08-03T06:16:51.663Z,19.18
2022-08-03T06:17:51.647Z,19.23
2022-08-03T06:18:51.639Z,19.31
2022-08-03T06:19:51.627Z,19.35
2022-08-03T06:20:51.617Z,19.40
2022-08-03T06:21:51.608Z,19.43
2022-08-03T06:23:00.446Z,19.51
2022-08-03T06:23:54.978Z,19.54
2022-08-03T06:24:53.495Z,19.60
2022-08-03T06:25:51.557Z,19.61
2022-08-03T06:26:51.547Z,19.65
2022-08-03T06:27:51.538Z,19.70
2022-08-03T06:28:53.966Z,19.72
2022-08-03T06:29:51.526Z,19.78
2022-08-03T06:30:51.517Z,19.83
2022-08-03T06:31:51.508Z,19.88
2022-08-03T06:32:52.434Z,19.90
2022-08-03T06:34:33.567Z,19.95
2022-08-03T06:34:52.468Z,19.98
2022-08-03T06:35:51.437Z,20.00
2022-08-03T06:36:52.210Z,20.05
2022-08-03T06:37:51.418Z,20.09
2022-08-03T06:38:51.436Z,20.10
2022-08-03T06:39:51.416Z,20.13
2022-08-03T06:40:51.387Z,20.15
2022-08-03T06:41:51.377Z,20.16
2022-08-03T06:42:51.436Z,20.21
2022-08-03T06:44:03.030Z,20.25
2022-08-03T06:44:52.379Z,20.30
2022-08-03T06:45:51.326Z,20.27
2022-08-03T06:46:51.325Z,20.30
2022-08-03T06:47:51.306Z,20.33
2022-08-03T06:48:51.295Z,20.39
2022-08-03T06:50:14.295Z,20.41
2022-08-03T06:50:52.286Z,20.46
2022-08-03T06:52:05.997Z,20.51
2022-08-03T06:52:52.246Z,20.58
2022-08-03T06:53:51.237Z,20.62
2022-08-03T06:54:51.226Z,20.64
2022-08-03T06:55:54.390Z,20.69
2022-08-03T06:56:51.216Z,20.74
2022-08-03T06:57:51.210Z,20.80
2022-08-03T06:58:51.227Z,20.84
2022-08-03T07:00:09.352Z,20.87
2022-08-03T07:00:52.165Z,20.91
2022-08-03T07:01:51.215Z,20.98
2022-08-03T07:02:56.144Z,21.02
2022-08-03T07:03:52.698Z,21.05
2022-08-03T07:04:51.115Z,21.05
2022-08-03T07:05:51.104Z,21.13
2022-08-03T07:06:51.094Z,21.16
2022-08-03T07:07:51.085Z,21.14
2022-08-03T07:08:53.631Z,21.17
2022-08-03T07:09:57.317Z,21.17
2022-08-03T07:10:52.046Z,21.23
2022-08-03T07:11:51.035Z,21.26
2022-08-03T07:12:52.730Z,21.32
2022-08-03T07:13:52.006Z,21.34
2022-08-03T07:14:51.004Z,21.32
2022-08-03T07:15:55.304Z,21.34
2022-08-03T07:16:51.974Z,21.35
2022-08-03T07:17:50.976Z,21.36
2022-08-03T07:18:50.955Z,21.42
2022-08-03T07:19:50.943Z,21.44
2022-08-03T07:20:50.938Z,21.45
2022-08-03T07:21:50.926Z,21.50
2022-08-03T07:22:50.934Z,21.54
2022-08-03T07:23:50.895Z,21.51
2022-08-03T07:24:50.885Z,21.56
2022-08-03T07:25:51.018Z,21.63
2022-08-03T07:26:50.864Z,21.66
2022-08-03T07:27:51.872Z,21.69
2022-08-03T07:28:50.852Z,21.71
2022-08-03T07:29:50.824Z,21.75
2022-08-03T07:30:50.826Z,21.78
2022-08-03T07:31:51.898Z,21.85
2022-08-03T07:32:50.925Z,21.91
2022-08-03T07:33:50.804Z,21.94
2022-08-03T07:34:50.774Z,21.98
2022-08-03T07:35:50.763Z,22.02
2022-08-03T07:36:50.754Z,22.06
2022-08-03T07:37:54.408Z,22.10
2022-08-03T07:38:50.776Z,22.17
2022-08-03T07:39:50.733Z,22.22
2022-08-03T07:40:50.704Z,22.25
2022-08-03T07:41:50.693Z,22.32
2022-08-03T07:42:52.144Z,22.37
2022-08-03T07:43:50.675Z,22.41
2022-08-03T07:44:50.664Z,22.46
2022-08-03T07:45:50.662Z,22.53
2022-08-03T07:46:50.643Z,22.60
2022-08-03T07:47:53.569Z,22.65
2022-08-03T07:48:50.623Z,22.71
2022-08-03T07:49:50.606Z,22.74
2022-08-03T07:50:50.622Z,22.78
2022-08-03T07:51:50.583Z,22.83
2022-08-03T07:52:50.857Z,22.84
2022-08-03T07:53:50.563Z,22.87
2022-08-03T07:54:50.621Z,22.93
2022-08-03T07:55:50.553Z,22.97
2022-08-03T07:56:50.543Z,23.01
2022-08-03T07:57:50.521Z,23.02
2022-08-03T07:58:50.503Z,23.07
2022-08-03T07:59:56.845Z,23.09
2022-08-03T08:00:51.550Z,23.15
2022-08-03T08:01:50.513Z,23.17
2022-08-03T08:02:50.462Z,23.22
2022-08-03T08:03:52.616Z,23.26
2022-08-03T08:04:50.445Z,23.29
2022-08-03T08:05:50.422Z,23.35
2022-08-03T08:06:50.423Z,23.40
2022-08-03T08:07:51.287Z,23.46
2022-08-03T08:08:50.402Z,23.52
2022-08-03T08:09:50.371Z,23.55
2022-08-03T08:10:58.154Z,23.60
2022-08-03T08:11:51.371Z,23.62
2022-08-03T08:12:50.354Z,23.68
2022-08-03T08:13:50.334Z,23.75
2022-08-03T08:14:50.342Z,23.77
2022-08-03T08:15:50.311Z,23.77
2022-08-03T08:16:50.303Z,23.83
2022-08-03T08:17:50.299Z,23.90
2022-08-03T08:18:50.275Z,23.90
2022-08-03T08:19:53.193Z,23.90
2022-08-03T08:20:50.251Z,23.94
2022-08-03T08:21:52.928Z,24.00
2022-08-03T08:22:51.242Z,24.04
2022-08-03T08:23:57.058Z,24.12
2022-08-03T08:24:51.201Z,24.14
2022-08-03T08:25:50.201Z,24.14
2022-08-03T08:26:50.190Z,24.16
2022-08-03T08:28:30.890Z,24.19
2022-08-03T08:28:51.161Z,24.23
2022-08-03T08:29:54.206Z,24.26
2022-08-03T08:30:51.150Z,24.29
2022-08-03T08:31:50.134Z,24.34
2022-08-03T08:32:50.121Z,24.37
2022-08-03T08:34:05.406Z,24.39
2022-08-03T08:34:51.142Z,24.42
2022-08-03T08:35:50.081Z,24.47
2022-08-03T08:36:50.071Z,24.50
2022-08-03T08:37:50.960Z,24.54
2022-08-03T08:38:50.065Z,24.57
2022-08-03T08:39:50.032Z,24.61
2022-08-03T08:40:50.032Z,24.67
2022-08-03T08:41:53.194Z,24.73
2022-08-03T08:42:58.866Z,24.77
2022-08-03T08:43:51.001Z,24.82
2022-08-03T08:44:50.021Z,24.90
2022-08-03T08:45:49.971Z,24.98
2022-08-03T08:46:49.962Z,25.05
2022-08-03T08:47:51.051Z,25.12
2022-08-03T08:48:49.939Z,25.13
2022-08-03T08:50:08.928Z,25.17
2022-08-03T08:50:50.911Z,25.24
2022-08-03T08:51:59.561Z,25.27
2022-08-03T08:52:50.891Z,25.30
2022-08-03T08:53:49.889Z,25.30
2022-08-03T08:54:50.651Z,25.34
2022-08-03T08:55:59.470Z,25.38
2022-08-03T08:56:50.878Z,25.38
2022-08-03T08:57:49.841Z,25.43
2022-08-03T08:58:49.868Z,25.44
2022-08-03T08:59:52.480Z,25.47
2022-08-03T09:00:50.857Z,25.53
2022-08-03T09:01:49.790Z,25.59
2022-08-03T09:02:49.792Z,25.64
2022-08-03T09:03:49.770Z,25.65
2022-08-03T09:04:49.761Z,25.69
2022-08-03T09:05:57.039Z,25.77
2022-08-03T09:07:17.575Z,25.83
2022-08-03T09:07:50.741Z,25.87
2022-08-03T09:08:49.713Z,25.89
2022-08-03T09:10:11.239Z,25.93
2022-08-03T09:10:50.690Z,25.91
2022-08-03T09:11:57.589Z,25.93
2022-08-03T09:12:50.668Z,25.97
2022-08-03T09:13:49.660Z,26.02
2022-08-03T09:15:07.605Z,26.09
2022-08-03T09:15:52.716Z,26.18
2022-08-03T09:16:50.620Z,26.22
2022-08-03T09:17:51.277Z,26.29
2022-08-03T09:18:49.610Z,26.36
2022-08-03T09:20:03.480Z,26.40
2022-08-03T09:20:50.570Z,26.46
2022-08-03T09:21:49.619Z,26.47
2022-08-03T09:22:49.550Z,26.55
2022-08-03T09:24:02.195Z,26.59
2022-08-03T09:25:08.694Z,26.64
2022-08-03T09:25:50.519Z,26.64
2022-08-03T09:26:49.509Z,26.65
2022-08-03T09:27:49.510Z,26.68
2022-08-03T09:29:00.799Z,26.67
2022-08-03T09:29:50.480Z,26.69
2022-08-03T09:30:49.460Z,26.74
2022-08-03T09:31:49.461Z,26.81
2022-08-03T09:32:49.441Z,26.86
2022-08-03T09:33:49.439Z,26.92
2022-08-03T09:34:49.430Z,26.99
2022-08-03T09:35:53.959Z,26.98
2022-08-03T09:36:50.399Z,27.01
2022-08-03T09:38:12.306Z,27.04
2022-08-03T09:38:50.386Z,27.09
2022-08-03T09:39:49.369Z,27.13
2022-08-03T09:40:49.349Z,27.13
2022-08-03T09:41:49.350Z,27.16
2022-08-03T09:42:49.329Z,27.20
2022-08-03T09:43:50.068Z,27.20
2022-08-03T09:44:49.309Z,27.21
2022-08-03T09:45:49.309Z,27.23
2022-08-03T09:46:50.151Z,27.26
2022-08-03T09:47:49.281Z,27.33
2022-08-03T09:48:49.270Z,27.38
2022-08-03T09:49:49.262Z,27.41
2022-08-03T09:50:58.495Z,27.41
2022-08-03T09:52:32.735Z,27.41
2022-08-03T09:52:52.561Z,27.43
2022-08-03T09:53:58.463Z,27.47
2022-08-03T09:54:50.202Z,27.47
2022-08-03T09:56:35.218Z,27.50
2022-08-03T09:56:50.171Z,27.53
2022-08-03T09:57:49.169Z,27.58
2022-08-03T09:58:49.159Z,27.59
2022-08-03T09:59:49.129Z,27.64
2022-08-03T10:00:49.186Z,27.67
2022-08-03T10:01:49.119Z,27.69
2022-08-03T10:02:49.100Z,27.70
2022-08-03T10:04:04.152Z,27.76
2022-08-03T10:04:50.098Z,27.80
2022-08-03T10:05:49.061Z,27.86
2022-08-03T10:06:49.079Z,27.92
2022-08-03T10:07:49.043Z,27.95
2022-08-03T10:08:49.039Z,27.96
2022-08-03T10:09:49.037Z,27.95
2022-08-03T10:10:49.102Z,27.94
2022-08-03T10:11:49.009Z,27.96
2022-08-03T10:12:48.991Z,28.01
2022-08-03T10:13:48.977Z,28.06
2022-08-03T10:14:48.979Z,28.07
2022-08-03T10:16:22.081Z,28.07
2022-08-03T10:16:49.949Z,28.11
2022-08-03T10:17:48.939Z,28.14
2022-08-03T10:18:48.929Z,28.13
2022-08-03T10:19:48.971Z,28.21
2022-08-03T10:20:48.908Z,28.21
2022-08-03T10:21:48.890Z,28.23
2022-08-03T10:22:48.880Z,28.22
2022-08-03T10:23:48.870Z,28.26
2022-08-03T10:24:48.871Z,28.29
2022-08-03T10:25:48.839Z,28.31
2022-08-03T10:26:50.349Z,28.32
2022-08-03T10:27:49.769Z,28.40
2022-08-03T10:28:48.813Z,28.41
2022-08-03T10:29:48.819Z,28.40
2022-08-03T10:30:48.779Z,28.36
2022-08-03T10:31:57.890Z,28.41
2022-08-03T10:32:49.791Z,28.44
2022-08-03T10:33:49.720Z,28.47
2022-08-03T10:34:48.739Z,28.51
2022-08-03T10:35:48.758Z,28.56
2022-08-03T10:36:48.734Z,28.62
2022-08-03T10:37:57.156Z,28.69
2022-08-03T10:38:49.700Z,28.72
2022-08-03T10:39:48.689Z,28.75
2022-08-03T10:40:50.488Z,28.77
2022-08-03T10:41:48.926Z,28.81
2022-08-03T10:42:48.650Z,28.82
2022-08-03T10:43:48.681Z,28.85
2022-08-03T10:44:48.629Z,28.82
2022-08-03T10:45:48.619Z,28.91
2022-08-03T10:46:48.620Z,28.96
2022-08-03T10:47:48.622Z,29.01
2022-08-03T10:48:48.599Z,29.06
2022-08-03T10:49:48.613Z,29.10
2022-08-03T10:50:48.578Z,29.08
2022-08-03T10:51:48.562Z,29.11
2022-08-03T10:52:49.571Z,29.16
2022-08-03T10:53:54.724Z,29.19
2022-08-03T10:54:49.511Z,29.22
2022-08-03T10:55:48.512Z,29.26
2022-08-03T10:56:49.784Z,29.34
2022-08-03T10:57:48.807Z,29.38
2022-08-03T10:58:56.975Z,29.43
2022-08-03T10:59:49.459Z,29.49
2022-08-03T11:00:48.516Z,29.52
2022-08-03T11:01:58.306Z,29.50
2022-08-03T11:02:49.432Z,29.53
2022-08-03T11:03:49.141Z,29.53
2022-08-03T11:04:48.411Z,29.53
2022-08-03T11:05:48.389Z,29.49
2022-08-03T11:06:48.380Z,29.50
2022-08-03T11:07:54.596Z,29.50
2022-08-03T11:08:49.360Z,29.52
2022-08-03T11:09:48.347Z,29.55
2022-08-03T11:10:48.331Z,29.62
2022-08-03T11:11:48.321Z,29.70
2022-08-03T11:12:48.310Z,29.72
2022-08-03T11:13:48.310Z,29.75
2022-08-03T11:14:48.305Z,29.77
2022-08-03T11:15:48.280Z,29.81
2022-08-03T11:16:48.260Z,29.92
2022-08-03T11:17:55.863Z,29.97
2022-08-03T11:18:49.250Z,29.97
2022-08-03T11:19:56.767Z,30.03
2022-08-03T11:20:49.262Z,30.09
2022-08-03T11:21:48.215Z,30.11
2022-08-03T11:22:48.199Z,30.18
2022-08-03T11:24:04.021Z,30.16
2022-08-03T11:24:49.196Z,30.16
2022-08-03T11:25:55.088Z,30.23
2022-08-03T11:26:49.160Z,30.23
2022-08-03T11:27:48.151Z,30.26
2022-08-03T11:28:48.130Z,30.29
2022-08-03T11:29:48.141Z,30.29
2022-08-03T11:30:48.130Z,30.31
2022-08-03T11:31:50.169Z,30.33
2022-08-03T11:32:48.498Z,30.33
2022-08-03T11:33:48.080Z,30.37
2022-08-03T11:34:48.060Z,30.40
2022-08-03T11:35:48.061Z,30.46
2022-08-03T11:36:48.059Z,30.53
2022-08-03T11:38:02.456Z,30.56
2022-08-03T11:38:49.021Z,30.61
2022-08-03T11:39:48.010Z,30.65
2022-08-03T11:40:48.009Z,30.61
2022-08-03T11:41:47.990Z,30.64
2022-08-03T11:42:47.993Z,30.67
2022-08-03T11:43:47.961Z,30.71
2022-08-03T11:44:47.961Z,30.72
2022-08-03T11:45:47.940Z,30.76
2022-08-03T11:46:47.931Z,30.86
2022-08-03T11:47:50.560Z,30.91
2022-08-03T11:48:47.930Z,30.94
2022-08-03T11:49:47.901Z,30.98
2022-08-03T11:50:47.890Z,30.99
2022-08-03T11:51:47.880Z,31.06
2022-08-03T11:52:47.872Z,31.13
2022-08-03T11:53:47.854Z,31.18
2022-08-03T11:54:47.851Z,31.23
2022-08-03T11:55:48.854Z,31.26
2022-08-03T11:56:47.824Z,31.27
2022-08-03T11:59:00.851Z,31.31
2022-08-03T11:59:17.805Z,31.30
2022-08-03T11:59:48.790Z,31.33
2022-08-03T12:00:47.788Z,31.31
2022-08-03T12:01:47.775Z,31.30
2022-08-03T12:02:47.859Z,31.35
2022-08-03T12:03:47.794Z,31.36
2022-08-03T12:04:47.742Z,31.36
2022-08-03T12:05:51.896Z,31.31
2022-08-03T12:06:47.720Z,31.33
2022-08-03T12:08:04.210Z,31.35
2022-08-03T12:08:48.701Z,31.33
2022-08-03T12:09:47.683Z,31.30
2022-08-03T12:10:47.671Z,31.20
2022-08-03T12:11:59.348Z,31.23
2022-08-03T12:12:48.642Z,31.20
2022-08-03T12:14:44.750Z,31.21
2022-08-03T12:14:52.105Z,31.21
2022-08-03T12:15:47.610Z,31.21
2022-08-03T12:16:47.601Z,31.27
2022-08-03T12:17:47.603Z,31.28
2022-08-03T12:18:47.582Z,31.28
2022-08-03T12:19:47.592Z,31.30
2022-08-03T12:20:47.562Z,31.26
2022-08-03T12:21:56.956Z,31.27
2022-08-03T12:22:48.540Z,31.26
2022-08-03T12:23:47.521Z,31.28
2022-08-03T12:24:47.966Z,31.30
2022-08-03T12:25:47.645Z,31.31
2022-08-03T12:26:58.093Z,31.33
2022-08-03T12:27:48.482Z,31.33
2022-08-03T12:28:49.793Z,31.35
2022-08-03T12:29:57.233Z,31.38
2022-08-03T12:30:48.463Z,31.31
2022-08-03T12:31:47.433Z,31.30
2022-08-03T12:32:47.433Z,31.26
2022-08-03T12:33:47.421Z,31.26
2022-08-03T12:34:47.803Z,31.28
2022-08-03T12:35:52.675Z,31.21
2022-08-03T12:36:48.383Z,31.20
2022-08-03T12:37:47.372Z,31.23
2022-08-03T12:38:47.364Z,31.20
2022-08-03T12:40:02.982Z,31.15
2022-08-03T12:40:48.341Z,31.15
2022-08-03T12:41:47.332Z,31.13
2022-08-03T12:42:47.321Z,31.15
2022-08-03T12:43:47.303Z,31.13
2022-08-03T12:44:47.301Z,31.15
2022-08-03T12:45:48.283Z,31.20
2022-08-03T12:46:48.194Z,31.13
2022-08-03T12:47:47.262Z,31.09
2022-08-03T12:48:47.253Z,31.08
2022-08-03T12:49:47.253Z,31.11
2022-08-03T12:50:47.234Z,31.11
2022-08-03T12:51:48.212Z,31.11
2022-08-03T12:52:47.211Z,31.01